Home > Products > Valid Products > TAF

000
FTUS44 KMOB 031127
TAFMOB
TAF
KMOB 031127Z 0312/0412 VRB04KT P6SM FEW180 SCT250
     FM031700 16010KT P6SM FEW140
     FM040900 VRB03KT 4SM BR SCT006=



000
FTUS44 KMOB 031127
TAFMOB
TAF
KMOB 031127Z 0312/0412 VRB04KT P6SM FEW180 SCT250
     FM031700 16010KT P6SM FEW140
     FM040900 VRB03KT 4SM BR SCT006=



000
FTUS44 KMOB 031127
TAFMOB
TAF
KMOB 031127Z 0312/0412 VRB04KT P6SM FEW180 SCT250
     FM031700 16010KT P6SM FEW140
     FM040900 VRB03KT 4SM BR SCT006=



000
FTUS44 KMOB 031127
TAFPNS
TAF
KPNS 031127Z 0312/0412 01004KT P6SM FEW140
     FM031800 18012KT P6SM FEW140
     FM040000 12004KT P6SM SKC
     FM041100 10003KT 4SM BR SCT006=



000
FTUS44 KMOB 031127
TAFPNS
TAF
KPNS 031127Z 0312/0412 01004KT P6SM FEW140
     FM031800 18012KT P6SM FEW140
     FM040000 12004KT P6SM SKC
     FM041100 10003KT 4SM BR SCT006=



000
FTUS44 KMOB 031127
TAFPNS
TAF
KPNS 031127Z 0312/0412 01004KT P6SM FEW140
     FM031800 18012KT P6SM FEW140
     FM040000 12004KT P6SM SKC
     FM041100 10003KT 4SM BR SCT006=



000
FTUS44 KMOB 031127
TAFPNS
TAF
KPNS 031127Z 0312/0412 01004KT P6SM FEW140
     FM031800 18012KT P6SM FEW140
     FM040000 12004KT P6SM SKC
     FM041100 10003KT 4SM BR SCT006=



000
FTUS44 KMOB 030531
TAFPNS
TAF
KPNS 030531Z 0306/0406 00000KT P6SM FEW140
     FM031700 16010KT P6SM FEW040=



000
FTUS44 KMOB 030531
TAFMOB
TAF
KMOB 030531Z 0306/0406 00000KT P6SM FEW140
     FM031600 16010KT P6SM FEW040=



000
FTUS44 KMOB 030531
TAFMOB
TAF
KMOB 030531Z 0306/0406 00000KT P6SM FEW140
     FM031600 16010KT P6SM FEW040=



000
FTUS44 KMOB 030531
TAFPNS
TAF
KPNS 030531Z 0306/0406 00000KT P6SM FEW140
     FM031700 16010KT P6SM FEW040=



000
FTUS44 KMOB 030531
TAFPNS
TAF
KPNS 030531Z 0306/0406 00000KT P6SM FEW140
     FM031700 16010KT P6SM FEW040=



000
FTUS44 KMOB 030531
TAFMOB
TAF
KMOB 030531Z 0306/0406 00000KT P6SM FEW140
     FM031600 16010KT P6SM FEW040=



000
FTUS44 KMOB 030531
TAFMOB
TAF
KMOB 030531Z 0306/0406 00000KT P6SM FEW140
     FM031600 16010KT P6SM FEW040=



000
FTUS44 KMOB 030531
TAFPNS
TAF
KPNS 030531Z 0306/0406 00000KT P6SM FEW140
     FM031700 16010KT P6SM FEW040=



000
FTUS44 KMOB 022339
TAFMOB
TAF
KMOB 022339Z 0300/0324 18005KT P6SM SKC
     FM031700 15010KT P6SM FEW040=



000
FTUS44 KMOB 022339
TAFPNS
TAF
KPNS 022339Z 0300/0324 20005KT P6SM SKC
     FM031700 15010KT P6SM FEW040=



000
FTUS44 KMOB 022339
TAFMOB
TAF
KMOB 022339Z 0300/0324 18005KT P6SM SKC
     FM031700 15010KT P6SM FEW040=



000
FTUS44 KMOB 022339
TAFMOB
TAF
KMOB 022339Z 0300/0324 18005KT P6SM SKC
     FM031700 15010KT P6SM FEW040=



000
FTUS44 KMOB 022339
TAFPNS
TAF
KPNS 022339Z 0300/0324 20005KT P6SM SKC
     FM031700 15010KT P6SM FEW040=



000
FTUS44 KMOB 022339
TAFPNS
TAF
KPNS 022339Z 0300/0324 20005KT P6SM SKC
     FM031700 15010KT P6SM FEW040=



000
FTUS44 KMOB 022339
TAFMOB
TAF
KMOB 022339Z 0300/0324 18005KT P6SM SKC
     FM031700 15010KT P6SM FEW040=



000
FTUS44 KMOB 022339
TAFPNS
TAF
KPNS 022339Z 0300/0324 20005KT P6SM SKC
     FM031700 15010KT P6SM FEW040=



000
FTUS44 KMOB 021722
TAFMOB
TAF
KMOB 021722Z 0218/0318 VRB03KT P6SM SKC
     FM022100 17008KT P6SM SKC
     FM030300 19002KT P6SM SKC
     FM031500 13007KT P6SM FEW050=



000
FTUS44 KMOB 021722
TAFPNS
TAF
KPNS 021722Z 0218/0318 01003KT P6SM SKC
     FM022100 18010KT P6SM SKC
     FM030300 21004KT P6SM SKC
     FM031500 13008KT P6SM FEW050=



000
FTUS44 KMOB 021722
TAFPNS
TAF
KPNS 021722Z 0218/0318 01003KT P6SM SKC
     FM022100 18010KT P6SM SKC
     FM030300 21004KT P6SM SKC
     FM031500 13008KT P6SM FEW050=



000
FTUS44 KMOB 021722
TAFMOB
TAF
KMOB 021722Z 0218/0318 VRB03KT P6SM SKC
     FM022100 17008KT P6SM SKC
     FM030300 19002KT P6SM SKC
     FM031500 13007KT P6SM FEW050=



000
FTUS44 KMOB 021722
TAFPNS
TAF
KPNS 021722Z 0218/0318 01003KT P6SM SKC
     FM022100 18010KT P6SM SKC
     FM030300 21004KT P6SM SKC
     FM031500 13008KT P6SM FEW050=



000
FTUS44 KMOB 021722
TAFMOB
TAF
KMOB 021722Z 0218/0318 VRB03KT P6SM SKC
     FM022100 17008KT P6SM SKC
     FM030300 19002KT P6SM SKC
     FM031500 13007KT P6SM FEW050=



000
FTUS44 KMOB 021722
TAFPNS
TAF
KPNS 021722Z 0218/0318 01003KT P6SM SKC
     FM022100 18010KT P6SM SKC
     FM030300 21004KT P6SM SKC
     FM031500 13008KT P6SM FEW050=



000
FTUS44 KMOB 021722
TAFMOB
TAF
KMOB 021722Z 0218/0318 VRB03KT P6SM SKC
     FM022100 17008KT P6SM SKC
     FM030300 19002KT P6SM SKC
     FM031500 13007KT P6SM FEW050=



000
FTUS44 KMOB 021134
TAFPNS
TAF
KPNS 021134Z 0212/0312 01003KT P6SM SKC
     FM021800 15010KT P6SM SKC=



000
FTUS44 KMOB 021134
TAFMOB
TAF
KMOB 021134Z 0212/0312 VRB03KT P6SM SKC
     FM022100 14006KT P6SM SKC=



000
FTUS44 KMOB 021134
TAFPNS
TAF
KPNS 021134Z 0212/0312 01003KT P6SM SKC
     FM021800 15010KT P6SM SKC=



000
FTUS44 KMOB 021134
TAFMOB
TAF
KMOB 021134Z 0212/0312 VRB03KT P6SM SKC
     FM022100 14006KT P6SM SKC=



000
FTUS44 KMOB 021134
TAFMOB
TAF
KMOB 021134Z 0212/0312 VRB03KT P6SM SKC
     FM022100 14006KT P6SM SKC=



000
FTUS44 KMOB 021134
TAFPNS
TAF
KPNS 021134Z 0212/0312 01003KT P6SM SKC
     FM021800 15010KT P6SM SKC=



000
FTUS44 KMOB 021134
TAFMOB
TAF
KMOB 021134Z 0212/0312 VRB03KT P6SM SKC
     FM022100 14006KT P6SM SKC=



000
FTUS44 KMOB 021134
TAFPNS
TAF
KPNS 021134Z 0212/0312 01003KT P6SM SKC
     FM021800 15010KT P6SM SKC=



000
FTUS44 KMOB 020542
TAFMOB
TAF
KMOB 020542Z 0206/0306 04006KT P6SM SKC
     FM021500 07004KT P6SM SKC=



000
FTUS44 KMOB 020542
TAFPNS
TAF
KPNS 020542Z 0206/0306 01005KT P6SM SKC
     FM021500 09004KT P6SM SKC=



000
FTUS44 KMOB 020542
TAFPNS
TAF
KPNS 020542Z 0206/0306 01005KT P6SM SKC
     FM021500 09004KT P6SM SKC=



000
FTUS44 KMOB 020542
TAFMOB
TAF
KMOB 020542Z 0206/0306 04006KT P6SM SKC
     FM021500 07004KT P6SM SKC=



000
FTUS44 KMOB 012330
TAFMOB
TAF
KMOB 012330Z 0200/0224 36009KT P6SM SKC
     FM021500 07004KT P6SM SKC=



000
FTUS44 KMOB 012330
TAFPNS
TAF
KPNS 012330Z 0200/0224 34009KT P6SM SKC
     FM021500 09004KT P6SM SKC=



000
FTUS44 KMOB 012330
TAFMOB
TAF
KMOB 012330Z 0200/0224 36009KT P6SM SKC
     FM021500 07004KT P6SM SKC=



000
FTUS44 KMOB 012330
TAFMOB
TAF
KMOB 012330Z 0200/0224 36009KT P6SM SKC
     FM021500 07004KT P6SM SKC=



000
FTUS44 KMOB 012330
TAFPNS
TAF
KPNS 012330Z 0200/0224 34009KT P6SM SKC
     FM021500 09004KT P6SM SKC=



000
FTUS44 KMOB 012330
TAFPNS
TAF
KPNS 012330Z 0200/0224 34009KT P6SM SKC
     FM021500 09004KT P6SM SKC=



000
FTUS44 KMOB 012330
TAFPNS
TAF
KPNS 012330Z 0200/0224 34009KT P6SM SKC
     FM021500 09004KT P6SM SKC=



000
FTUS44 KMOB 012330
TAFMOB
TAF
KMOB 012330Z 0200/0224 36009KT P6SM SKC
     FM021500 07004KT P6SM SKC=



000
FTUS44 KMOB 011746
TAFPNS
TAF
KPNS 011746Z 0118/0218 36008KT P6SM SKC
     FM020000 VRB03KT P6SM SKC=



000
FTUS44 KMOB 011746
TAFMOB
TAF
KMOB 011746Z 0118/0218 01007KT P6SM SKC
     FM020000 VRB03KT P6SM SKC=



000
FTUS44 KMOB 011746
TAFMOB
TAF
KMOB 011746Z 0118/0218 01007KT P6SM SKC
     FM020000 VRB03KT P6SM SKC=



000
FTUS44 KMOB 011746
TAFPNS
TAF
KPNS 011746Z 0118/0218 36008KT P6SM SKC
     FM020000 VRB03KT P6SM SKC=



000
FTUS44 KMOB 011746
TAFPNS
TAF
KPNS 011746Z 0118/0218 36008KT P6SM SKC
     FM020000 VRB03KT P6SM SKC=



000
FTUS44 KMOB 011746
TAFMOB
TAF
KMOB 011746Z 0118/0218 01007KT P6SM SKC
     FM020000 VRB03KT P6SM SKC=



000
FTUS44 KMOB 011746
TAFMOB
TAF
KMOB 011746Z 0118/0218 01007KT P6SM SKC
     FM020000 VRB03KT P6SM SKC=



000
FTUS44 KMOB 011746
TAFPNS
TAF
KPNS 011746Z 0118/0218 36008KT P6SM SKC
     FM020000 VRB03KT P6SM SKC=



000
FTUS44 KMOB 011133
TAFPNS
TAF
KPNS 011133Z 0112/0212 34008KT P6SM FEW080
     FM011600 01009KT P6SM SKC=



000
FTUS44 KMOB 011133
TAFMOB
TAF
KMOB 011133Z 0112/0212 36004KT P6SM FEW080
     FM011600 01008KT P6SM SKC=



000
FTUS44 KMOB 011133
TAFPNS
TAF
KPNS 011133Z 0112/0212 34008KT P6SM FEW080
     FM011600 01009KT P6SM SKC=



000
FTUS44 KMOB 011133
TAFMOB
TAF
KMOB 011133Z 0112/0212 36004KT P6SM FEW080
     FM011600 01008KT P6SM SKC=



000
FTUS44 KMOB 011133
TAFMOB
TAF
KMOB 011133Z 0112/0212 36004KT P6SM FEW080
     FM011600 01008KT P6SM SKC=



000
FTUS44 KMOB 011133
TAFMOB
TAF
KMOB 011133Z 0112/0212 36004KT P6SM FEW080
     FM011600 01008KT P6SM SKC=



000
FTUS44 KMOB 011133
TAFPNS
TAF
KPNS 011133Z 0112/0212 34008KT P6SM FEW080
     FM011600 01009KT P6SM SKC=



000
FTUS44 KMOB 011133
TAFPNS
TAF
KPNS 011133Z 0112/0212 34008KT P6SM FEW080
     FM011600 01009KT P6SM SKC=



000
FTUS44 KMOB 010533
TAFPNS
TAF
KPNS 010533Z 0106/0206 25004KT P6SM SCT080
     FM011500 36009KT P6SM SKC=



000
FTUS44 KMOB 010533
TAFMOB
TAF
KMOB 010533Z 0106/0206 28005KT P6SM SCT080
     FM011500 01008KT P6SM SKC=



000
FTUS44 KMOB 010533
TAFPNS
TAF
KPNS 010533Z 0106/0206 25004KT P6SM SCT080
     FM011500 36009KT P6SM SKC=



000
FTUS44 KMOB 010533
TAFMOB
TAF
KMOB 010533Z 0106/0206 28005KT P6SM SCT080
     FM011500 01008KT P6SM SKC=



000
FTUS44 KMOB 302329
TAFMOB
TAF
KMOB 302329Z 0100/0124 32005KT P6SM SKC
     FM011500 01008KT P6SM SKC=



000
FTUS44 KMOB 302329
TAFPNS
TAF
KPNS 302329Z 0100/0124 32010KT P6SM SKC
     FM011500 36009KT P6SM SKC=



000
FTUS44 KMOB 302329
TAFPNS
TAF
KPNS 302329Z 0100/0124 32010KT P6SM SKC
     FM011500 36009KT P6SM SKC=



000
FTUS44 KMOB 302329
TAFMOB
TAF
KMOB 302329Z 0100/0124 32005KT P6SM SKC
     FM011500 01008KT P6SM SKC=



000
FTUS44 KMOB 302329
TAFMOB
TAF
KMOB 302329Z 0100/0124 32005KT P6SM SKC
     FM011500 01008KT P6SM SKC=



000
FTUS44 KMOB 302329
TAFPNS
TAF
KPNS 302329Z 0100/0124 32010KT P6SM SKC
     FM011500 36009KT P6SM SKC=



000
FTUS44 KMOB 302329
TAFMOB
TAF
KMOB 302329Z 0100/0124 32005KT P6SM SKC
     FM011500 01008KT P6SM SKC=



000
FTUS44 KMOB 302329
TAFPNS
TAF
KPNS 302329Z 0100/0124 32010KT P6SM SKC
     FM011500 36009KT P6SM SKC=



000
FTUS44 KMOB 301916 CCA
TAFMOB
TAF COR
KMOB 301916Z 3018/0118 32009KT P6SM SKC
     FM010100 34003KT P6SM SKC
     FM011200 34004KT P6SM SKC
     FM011700 36009G15KT P6SM SKC=



000
FTUS44 KMOB 301916 CCA
TAFMOB
TAF COR
KMOB 301916Z 3018/0118 32009KT P6SM SKC
     FM010100 34003KT P6SM SKC
     FM011200 34004KT P6SM SKC
     FM011700 36009G15KT P6SM SKC=



000
FTUS44 KMOB 301916 CCA
TAFPNS
TAF COR
KPNS 301916Z 3018/0118 31009KT P6SM SKC
     FM010600 32003KT P6SM SKC
     FM011200 34004KT P6SM SKC
     FM011700 36009G15KT P6SM SKC=



000
FTUS44 KMOB 301916 CCA
TAFPNS
TAF COR
KPNS 301916Z 3018/0118 31009KT P6SM SKC
     FM010600 32003KT P6SM SKC
     FM011200 34004KT P6SM SKC
     FM011700 36009G15KT P6SM SKC=



000
FTUS44 KMOB 301815 RRA
TAFPNS
TAF
KPNS 301815Z 3019/0118 31009KT P6SM SKC
     FM010600 32003KT P6SM SKC
     FM011200 34004KT P6SM SKC
     FM011700 36009G15KT P6SM SKC=



000
FTUS44 KMOB 301815 RRA
TAFMOB
TAF
KMOB 301815Z 3019/0118 32009KT P6SM SKC
     FM010100 34003KT P6SM SKC
     FM011200 34004KT P6SM SKC
     FM011700 36009G15KT P6SM SKC=



000
FTUS44 KMOB 301815 RRA
TAFMOB
TAF
KMOB 301815Z 3019/0118 32009KT P6SM SKC
     FM010100 34003KT P6SM SKC
     FM011200 34004KT P6SM SKC
     FM011700 36009G15KT P6SM SKC=



000
FTUS44 KMOB 301815 RRA
TAFPNS
TAF
KPNS 301815Z 3019/0118 31009KT P6SM SKC
     FM010600 32003KT P6SM SKC
     FM011200 34004KT P6SM SKC
     FM011700 36009G15KT P6SM SKC=



000
FTUS44 KMOB 301815 RRA
TAFPNS
TAF
KPNS 301815Z 3019/0118 31009KT P6SM SKC
     FM010600 32003KT P6SM SKC
     FM011200 34004KT P6SM SKC
     FM011700 36009G15KT P6SM SKC=



000
FTUS44 KMOB 301815 RRA
TAFMOB
TAF
KMOB 301815Z 3019/0118 32009KT P6SM SKC
     FM010100 34003KT P6SM SKC
     FM011200 34004KT P6SM SKC
     FM011700 36009G15KT P6SM SKC=



000
FTUS44 KMOB 301815 RRA
TAFPNS
TAF
KPNS 301815Z 3019/0118 31009KT P6SM SKC
     FM010600 32003KT P6SM SKC
     FM011200 34004KT P6SM SKC
     FM011700 36009G15KT P6SM SKC=



000
FTUS44 KMOB 301815 RRA
TAFMOB
TAF
KMOB 301815Z 3019/0118 32009KT P6SM SKC
     FM010100 34003KT P6SM SKC
     FM011200 34004KT P6SM SKC
     FM011700 36009G15KT P6SM SKC=



    US Dept of Commerce
    National Oceanic and Atmospheric Administration
    National Weather Service
    1325 East West Highway
    Silver Spring, MD 20910
    Page Author: NWS Internet Services Team
Disclaimer
Information Quality
Credits
Glossary
Privacy Policy
Freedom of Information Act (FOIA)
About Us
Career Opportunities